Time;durP1;ratioP1;P1;durP2;ratioP2;P2;SDS_P1;SDS_P2;PMS_P1;PMS_P2;Temp;Humidity;BMP_temperature;BMP_pressure;BME280_temperature;BME280_humidity;BME280_pressure;Samples;Min_cycle;Max_cycle;Signal;HPM_P1;HPM_P2
2021/01/21 00:01:02;;;;;;;1.57;1.37;;;7.90;99.90;;;;;;5008407;28;20196;-50
2021/01/21 00:03:27;;;;;;;2.57;1.47;;;8.00;99.90;;;;;;5025297;28;20196;-52
2021/01/21 00:05:53;;;;;;;4.97;1.80;;;8.00;99.90;;;;;;5021454;28;20194;-52
2021/01/21 00:08:18;;;;;;;1.90;1.30;;;8.20;99.90;;;;;;5025697;28;20257;-47
2021/01/21 00:10:44;;;;;;;2.20;1.60;;;8.20;99.90;;;;;;5022253;28;20269;-51
2021/01/21 00:13:09;;;;;;;1.77;1.13;;;8.20;99.90;;;;;;5021241;28;20187;-47
2021/01/21 00:15:35;;;;;;;1.87;1.03;;;8.30;99.90;;;;;;5024405;28;20188;-55
2021/01/21 00:18:00;;;;;;;1.57;1.40;;;8.30;99.90;;;;;;5000642;28;20967;-47
2021/01/21 00:20:26;;;;;;;2.77;1.30;;;8.40;99.90;;;;;;5025029;28;20183;-52
2021/01/21 00:22:52;;;;;;;2.37;1.20;;;8.40;99.90;;;;;;5016146;28;20168;-48
2021/01/21 00:25:17;;;;;;;2.73;1.03;;;8.50;99.90;;;;;;5023932;28;20582;-47
2021/01/21 00:27:43;;;;;;;2.30;1.47;;;8.50;99.90;;;;;;5021291;28;20202;-49
2021/01/21 00:30:09;;;;;;;1.50;1.40;;;8.50;99.90;;;;;;5015631;28;20703;-46
2021/01/21 00:32:35;;;;;;;3.60;1.47;;;8.50;99.90;;;;;;5009821;28;20188;-52
2021/01/21 00:35:00;;;;;;;1.80;0.83;;;8.50;99.90;;;;;;5020314;28;20198;-51
2021/01/21 00:37:26;;;;;;;3.03;1.33;;;8.40;99.90;;;;;;5024226;28;20716;-48
2021/01/21 00:39:51;;;;;;;2.33;1.00;;;8.40;99.90;;;;;;5019476;28;20279;-49
2021/01/21 00:42:17;;;;;;;1.70;1.33;;;8.40;99.90;;;;;;5023114;28;20195;-48
2021/01/21 00:44:42;;;;;;;3.03;1.50;;;8.40;99.90;;;;;;5021860;28;20211;-51
2021/01/21 00:47:08;;;;;;;2.37;1.10;;;8.40;99.90;;;;;;5022091;28;20874;-50
2021/01/21 00:49:33;;;;;;;1.53;1.23;;;8.40;99.90;;;;;;5010521;28;20191;-50
2021/01/21 00:51:59;;;;;;;2.83;1.17;;;8.40;99.90;;;;;;5020619;28;20790;-47
2021/01/21 00:54:24;;;;;;;3.13;1.53;;;8.30;99.90;;;;;;5023667;28;20192;-49
2021/01/21 00:56:50;;;;;;;3.87;1.13;;;8.30;99.90;;;;;;5020169;28;20188;-54
2021/01/21 00:59:15;;;;;;;1.50;1.07;;;8.30;99.90;;;;;;5022851;28;20576;-48
2021/01/21 01:01:40;;;;;;;1.97;1.70;;;8.30;99.90;;;;;;5022322;28;20183;-51
2021/01/21 01:04:06;;;;;;;1.57;1.10;;;8.30;99.90;;;;;;5007462;28;20314;-48
2021/01/21 01:06:31;;;;;;;4.90;1.40;;;8.30;99.90;;;;;;5023767;28;20214;-47
2021/01/21 01:08:57;;;;;;;1.67;1.30;;;8.30;99.90;;;;;;5019458;28;20176;-46
2021/01/21 01:11:22;;;;;;;2.73;1.20;;;8.30;99.90;;;;;;5023771;28;20179;-47
2021/01/21 01:13:48;;;;;;;1.23;1.13;;;8.40;99.90;;;;;;5020649;28;20207;-51
2021/01/21 01:16:13;;;;;;;3.70;1.60;;;8.40;99.90;;;;;;5023288;28;20728;-52
2021/01/21 01:18:39;;;;;;;2.87;0.90;;;8.40;99.90;;;;;;5009435;28;20315;-53
2021/01/21 01:21:04;;;;;;;1.57;1.20;;;8.40;99.90;;;;;;5021483;28;20173;-49
2021/01/21 01:23:30;;;;;;;3.07;1.30;;;8.30;99.90;;;;;;5023694;28;20231;-49
2021/01/21 01:25:56;;;;;;;2.67;1.53;;;8.40;99.90;;;;;;5019157;28;20236;-49
2021/01/21 01:28:22;;;;;;;1.83;1.00;;;8.40;99.90;;;;;;5023397;28;20693;-48
2021/01/21 01:30:47;;;;;;;3.20;1.27;;;8.40;99.90;;;;;;5020236;28;20179;-54
2021/01/21 01:33:13;;;;;;;1.10;1.00;;;8.40;99.90;;;;;;5021524;28;20191;-47
2021/01/21 01:35:38;;;;;;;2.30;1.40;;;8.40;99.90;;;;;;5008679;28;20196;-54
2021/01/21 01:38:04;;;;;;;2.00;1.07;;;8.40;99.90;;;;;;5019851;28;20206;-53
2021/01/21 01:40:29;;;;;;;1.73;1.00;;;8.40;99.90;;;;;;5023701;28;20774;-54
2021/01/21 01:42:56;;;;;;;4.40;1.40;;;8.40;99.90;;;;;;5019124;28;20299;-50
2021/01/21 01:45:21;;;;;;;3.33;1.20;;;8.40;99.90;;;;;;5023139;28;20861;-49
2021/01/21 01:47:47;;;;;;;5.60;1.77;;;8.40;99.90;;;;;;5019793;28;20208;-51
2021/01/21 01:50:15;;;;;;;1.90;1.03;;;8.40;99.90;;;;;;5008246;28;20196;-47
2021/01/21 01:52:41;;;;;;;2.70;1.50;;;8.40;99.90;;;;;;5021410;28;20271;-49
2021/01/21 01:55:12;;;;;;;1.77;1.20;;;8.40;99.90;;;;;;5020645;28;21077;-47
2021/01/21 01:57:39;;;;;;;2.03;1.20;;;8.40;99.90;;;;;;5022072;28;20176;-51
2021/01/21 02:00:06;;;;;;;1.80;1.23;;;8.40;99.90;;;;;;5020089;28;20199;-48
2021/01/21 02:02:31;;;;;;;2.47;1.47;;;8.40;99.90;;;;;;5022509;28;20195;-47
2021/01/21 02:04:57;;;;;;;2.77;1.60;;;8.40;99.90;;;;;;5005178;28;20776;-51
2021/01/21 02:07:22;;;;;;;1.70;1.27;;;8.40;99.90;;;;;;5020341;28;20204;-52
2021/01/21 02:09:49;;;;;;;1.93;1.40;;;8.40;99.90;;;;;;5019391;28;20172;-51
2021/01/21 02:12:34;;;;;;;1.70;1.20;;;8.50;99.90;;;;;;5022485;28;20239;-48
2021/01/21 02:15:11;;;;;;;1.30;1.20;;;8.50;99.90;;;;;;5019351;28;20215;-47
2021/01/21 02:18:24;;;;;;;2.30;1.20;;;8.50;99.90;;;;;;5022154;28;20587;-52
2021/01/21 02:21:28;;;;;;;5.03;1.53;;;8.50;99.90;;;;;;4998006;28;20200;-53
2021/01/21 02:24:20;;;;;;;1.30;1.20;;;8.50;99.90;;;;;;5018736;28;20194;-49
2021/01/21 02:26:51;;;;;;;2.27;1.40;;;8.40;99.90;;;;;;5020143;28;20247;-53
2021/01/21 02:29:30;;;;;;;2.20;1.43;;;8.40;99.90;;;;;;5022361;28;20208;-47
2021/01/21 02:32:07;;;;;;;1.67;0.93;;;8.40;99.90;;;;;;5018596;28;20287;-48
2021/01/21 02:34:39;;;;;;;4.70;1.30;;;8.40;99.90;;;;;;5022373;28;20191;-54
2021/01/21 02:37:13;;;;;;;2.33;1.40;;;8.30;99.90;;;;;;5011252;28;20241;-46
2021/01/21 02:39:44;;;;;;;2.57;1.00;;;8.20;99.90;;;;;;5015265;28;20827;-51
2021/01/21 02:42:09;;;;;;;2.37;1.20;;;8.20;99.90;;;;;;5019939;28;20750;-47
2021/01/21 02:44:34;;;;;;;1.97;1.10;;;8.10;99.90;;;;;;5021945;28;20204;-49
2021/01/21 02:47:00;;;;;;;2.47;1.13;;;8.10;99.90;;;;;;5018875;28;20872;-47
2021/01/21 02:49:26;;;;;;;2.20;1.10;;;8.10;99.90;;;;;;5016630;28;20196;-48
2021/01/21 02:52:01;;;;;;;1.17;1.07;;;8.00;99.90;;;;;;5009250;28;20188;-52
2021/01/21 02:54:49;;;;;;;1.63;1.03;;;8.00;99.90;;;;;;5020483;28;20680;-46
2021/01/21 02:57:27;;;;;;;3.20;1.10;;;8.00;99.90;;;;;;5025416;28;20246;-46
2021/01/21 02:59:59;;;;;;;2.23;1.03;;;8.00;99.90;;;;;;5021942;28;20345;-50
2021/01/21 03:02:26;;;;;;;1.40;1.20;;;8.00;99.90;;;;;;5026081;28;20192;-46
2021/01/21 03:04:53;;;;;;;4.40;1.30;;;8.00;99.90;;;;;;5022073;28;20244;-50
2021/01/21 03:07:21;;;;;;;4.47;1.50;;;8.00;99.90;;;;;;5012581;28;20315;-49
2021/01/21 03:09:47;;;;;;;1.57;1.10;;;8.00;99.90;;;;;;5022770;28;20546;-53
2021/01/21 03:12:17;;;;;;;1.73;1.10;;;8.00;99.90;;;;;;5024439;28;20256;-49
2021/01/21 03:14:43;;;;;;;1.80;1.10;;;8.00;99.90;;;;;;5023418;28;20208;-52
2021/01/21 03:17:09;;;;;;;3.37;1.00;;;8.00;99.90;;;;;;5023933;28;20914;-50
2021/01/21 03:19:35;;;;;;;1.83;1.47;;;8.00;99.90;;;;;;5024989;28;20192;-52
2021/01/21 03:22:00;;;;;;;1.87;1.17;;;8.00;99.90;;;;;;5008455;28;20433;-48
2021/01/21 03:24:26;;;;;;;1.73;1.17;;;8.00;99.90;;;;;;5025512;28;20264;-45
2021/01/21 03:26:51;;;;;;;1.73;1.00;;;8.00;99.90;;;;;;5021502;28;20680;-52
2021/01/21 03:29:17;;;;;;;2.40;1.10;;;8.00;99.90;;;;;;5025119;28;20186;-46
2021/01/21 03:31:42;;;;;;;2.03;1.10;;;8.00;99.90;;;;;;5023578;28;20188;-53
2021/01/21 03:34:07;;;;;;;1.10;1.00;;;8.10;99.90;;;;;;5023363;28;20917;-48
2021/01/21 03:36:33;;;;;;;2.13;1.10;;;8.10;99.90;;;;;;5025306;28;20267;-52
2021/01/21 03:38:58;;;;;;;3.03;1.13;;;8.10;99.90;;;;;;5007943;28;20180;-50
2021/01/21 03:41:24;;;;;;;4.73;1.10;;;8.10;99.90;;;;;;5025079;28;20192;-47
2021/01/21 03:43:49;;;;;;;3.30;1.63;;;8.20;99.90;;;;;;5021703;28;20207;-52
2021/01/21 03:46:15;;;;;;;4.03;1.07;;;8.20;99.90;;;;;;5024470;28;20219;-47
2021/01/21 03:48:40;;;;;;;2.70;1.30;;;8.20;99.90;;;;;;5024040;28;20688;-49
2021/01/21 03:51:06;;;;;;;1.57;1.20;;;8.30;99.90;;;;;;5023192;28;20176;-48
2021/01/21 03:53:31;;;;;;;1.70;0.97;;;8.20;99.90;;;;;;5025214;28;20271;-50
2021/01/21 03:55:57;;;;;;;1.67;1.10;;;8.30;99.90;;;;;;5006697;28;20899;-52
2021/01/21 03:58:22;;;;;;;2.83;0.90;;;8.30;99.90;;;;;;5025502;28;20184;-48
2021/01/21 04:00:47;;;;;;;2.63;1.10;;;8.30;99.90;;;;;;5021487;28;20196;-52
2021/01/21 04:03:13;;;;;;;2.30;1.10;;;8.30;99.90;;;;;;5023771;28;20184;-47
2021/01/21 04:05:38;;;;;;;1.10;1.00;;;8.30;99.90;;;;;;5023639;28;20581;-51
2021/01/21 04:08:04;;;;;;;1.17;1.00;;;8.30;99.90;;;;;;5021890;28;20185;-47
2021/01/21 04:10:29;;;;;;;5.73;1.73;;;8.20;99.90;;;;;;5011374;28;20189;-50
2021/01/21 04:12:55;;;;;;;1.60;0.93;;;8.30;99.90;;;;;;5021345;28;20229;-49
2021/01/21 04:15:20;;;;;;;4.47;1.00;;;8.30;99.90;;;;;;5025168;28;20203;-48
2021/01/21 04:17:46;;;;;;;1.47;1.10;;;8.30;99.90;;;;;;5022830;28;20215;-52
2021/01/21 04:20:12;;;;;;;3.33;1.13;;;8.30;99.90;;;;;;5023150;28;20961;-46
2021/01/21 04:22:37;;;;;;;3.70;1.00;;;8.30;99.90;;;;;;5023617;28;20188;-54
2021/01/21 04:25:03;;;;;;;1.13;1.03;;;8.20;99.90;;;;;;5021464;28;20941;-47
2021/01/21 04:27:29;;;;;;;3.40;0.90;;;8.30;99.90;;;;;;5010942;28;20204;-46
2021/01/21 04:29:54;;;;;;;1.77;1.00;;;8.20;99.90;;;;;;5019455;28;20184;-50
2021/01/21 04:32:20;;;;;;;1.83;1.10;;;8.20;99.90;;;;;;5025377;28;20260;-49
2021/01/21 04:34:45;;;;;;;1.93;0.97;;;8.20;99.90;;;;;;5022078;28;20537;-47
2021/01/21 04:37:11;;;;;;;2.53;1.17;;;8.20;99.90;;;;;;5022688;28;20187;-47
2021/01/21 04:39:36;;;;;;;1.03;0.90;;;8.20;99.90;;;;;;5023355;28;20268;-53
2021/01/21 04:42:02;;;;;;;3.37;1.13;;;8.30;99.90;;;;;;5002768;28;20953;-45
2021/01/21 04:44:27;;;;;;;2.67;1.10;;;8.20;99.90;;;;;;5024008;28;20254;-45
2021/01/21 04:46:54;;;;;;;4.77;1.20;;;8.20;99.90;;;;;;5019846;28;20196;-52
2021/01/21 04:49:20;;;;;;;2.23;1.10;;;8.10;99.90;;;;;;5024512;28;20184;-52
2021/01/21 04:51:49;;;;;;;1.90;1.07;;;8.10;99.90;;;;;;5022364;28;20184;-51
2021/01/21 04:54:21;;;;;;;1.77;1.37;;;8.10;99.90;;;;;;5023731;28;20407;-46
2021/01/21 04:56:48;;;;;;;4.20;1.07;;;8.10;99.90;;;;;;5007718;28;20199;-54
2021/01/21 04:59:18;;;;;;;3.27;1.10;;;8.00;99.90;;;;;;5022585;28;20180;-50
2021/01/21 05:01:44;;;;;;;1.07;0.93;;;8.00;99.90;;;;;;5022557;28;20177;-49
2021/01/21 05:04:12;;;;;;;1.30;1.00;;;8.00;99.90;;;;;;5022291;28;20188;-49
2021/01/21 05:06:38;;;;;;;2.70;1.00;;;8.00;99.90;;;;;;5022626;28;20265;-53
2021/01/21 05:09:04;;;;;;;1.77;0.90;;;7.90;99.90;;;;;;5020590;28;20164;-49
2021/01/21 05:11:30;;;;;;;2.20;0.90;;;7.90;99.90;;;;;;5023319;28;20183;-48
2021/01/21 05:13:55;;;;;;;1.97;1.03;;;7.90;99.90;;;;;;5005862;28;20204;-53
2021/01/21 05:16:21;;;;;;;1.00;0.80;;;7.90;99.90;;;;;;5023637;28;20176;-48
2021/01/21 05:18:47;;;;;;;3.00;1.03;;;7.90;99.90;;;;;;5021860;28;20538;-49
2021/01/21 05:21:12;;;;;;;2.40;1.00;;;7.90;99.90;;;;;;5023320;28;20608;-53
2021/01/21 05:23:39;;;;;;;1.23;0.70;;;8.00;99.90;;;;;;5023526;28;20219;-51
2021/01/21 05:26:04;;;;;;;3.03;1.00;;;8.10;99.90;;;;;;5021720;28;20949;-51
2021/01/21 05:28:30;;;;;;;2.33;1.10;;;8.10;99.90;;;;;;5011168;28;20188;-52
2021/01/21 05:31:00;;;;;;;1.37;1.07;;;8.20;99.90;;;;;;5019389;28;20271;-48
2021/01/21 05:33:27;;;;;;;1.93;1.13;;;8.20;99.90;;;;;;5023498;28;20240;-49
2021/01/21 05:35:54;;;;;;;1.20;0.90;;;8.30;99.90;;;;;;5019357;28;20237;-53
2021/01/21 05:38:21;;;;;;;4.70;1.37;;;8.30;99.90;;;;;;5023426;28;20637;-47
2021/01/21 05:40:46;;;;;;;1.43;1.10;;;8.30;99.90;;;;;;5020250;28;20192;-50
2021/01/21 05:43:13;;;;;;;0.90;0.80;;;8.30;99.90;;;;;;5007709;28;21191;-52
2021/01/21 05:45:39;;;;;;;2.53;0.90;;;8.20;99.90;;;;;;5022489;28;20169;-48
2021/01/21 05:48:04;;;;;;;2.07;0.80;;;8.30;99.90;;;;;;5020771;28;20202;-46
2021/01/21 05:50:30;;;;;;;2.00;1.17;;;8.40;99.90;;;;;;5023429;28;20812;-49
2021/01/21 05:52:57;;;;;;;2.03;0.83;;;8.50;99.90;;;;;;5019723;28;20853;-52
2021/01/21 05:55:27;;;;;;;1.97;0.83;;;8.50;99.90;;;;;;5023785;28;20739;-47
2021/01/21 05:57:56;;;;;;;1.30;0.87;;;8.50;99.90;;;;;;5006000;28;20184;-54
2021/01/21 06:00:25;;;;;;;1.10;0.80;;;8.50;99.90;;;;;;5022111;28;20184;-46
2021/01/21 06:02:51;;;;;;;1.43;0.60;;;8.60;99.90;;;;;;5016230;28;20253;-50
2021/01/21 06:05:19;;;;;;;2.80;1.17;;;8.70;99.90;;;;;;5022974;28;20561;-50
2021/01/21 06:07:46;;;;;;;1.03;0.80;;;8.80;99.90;;;;;;5012691;28;20703;-50
2021/01/21 06:10:13;;;;;;;1.10;0.87;;;8.80;99.90;;;;;;5021166;28;20168;-47
2021/01/21 06:12:38;;;;;;;1.10;1.00;;;8.80;99.90;;;;;;5021370;28;20291;-52
2021/01/21 06:15:04;;;;;;;1.47;1.00;;;8.90;99.90;;;;;;5002738;28;20219;-48
2021/01/21 06:17:30;;;;;;;3.10;0.90;;;9.00;99.90;;;;;;5022728;28;20203;-51
2021/01/21 06:19:55;;;;;;;2.13;0.90;;;9.10;99.90;;;;;;5018375;28;20903;-49
2021/01/21 06:22:29;;;;;;;2.47;0.90;;;9.20;99.90;;;;;;5022017;28;20215;-48
2021/01/21 06:24:59;;;;;;;2.33;0.90;;;9.20;99.90;;;;;;5002356;28;20669;-49
2021/01/21 06:27:26;;;;;;;3.83;0.70;;;9.20;99.90;;;;;;5019064;28;20212;-51
2021/01/21 06:29:55;;;;;;;2.23;0.73;;;9.30;99.90;;;;;;5001953;28;20185;-47
2021/01/21 06:32:27;;;;;;;3.33;0.93;;;9.40;99.90;;;;;;5017488;28;20271;-49
2021/01/21 06:34:53;;;;;;;0.93;0.80;;;9.40;99.90;;;;;;5026034;28;20202;-47
2021/01/21 06:37:21;;;;;;;0.77;0.70;;;9.40;99.90;;;;;;5023514;28;20302;-50
2021/01/21 06:39:47;;;;;;;1.47;0.97;;;9.40;99.90;;;;;;5022035;28;20195;-48
2021/01/21 06:42:17;;;;;;;2.53;0.90;;;9.40;99.90;;;;;;5025041;28;20176;-46
2021/01/21 06:44:43;;;;;;;1.63;0.83;;;9.40;99.90;;;;;;5022083;28;20223;-52
2021/01/21 06:47:09;;;;;;;0.80;0.80;;;9.40;99.90;;;;;;5011481;28;20219;-47
2021/01/21 06:49:36;;;;;;;1.83;0.73;;;9.50;99.90;;;;;;5024273;28;20183;-50
2021/01/21 06:52:03;;;;;;;1.07;0.90;;;9.50;99.90;;;;;;5025144;28;20194;-47
2021/01/21 06:54:31;;;;;;;2.17;0.80;;;9.60;99.90;;;;;;5015559;28;20195;-49
2021/01/21 06:56:56;;;;;;;1.23;0.80;;;9.60;99.90;;;;;;5025987;28;20187;-47
2021/01/21 06:59:54;;;;;;;1.83;0.90;;;9.70;99.90;;;;;;5018057;28;20184;-55
2021/01/21 07:02:48;;;;;;;3.63;1.03;;;9.80;99.90;;;;;;5007349;28;20281;-52
2021/01/21 07:05:25;;;;;;;0.60;0.60;;;9.80;99.90;;;;;;5017945;28;20200;-47
2021/01/21 07:07:53;;;;;;;1.73;0.90;;;9.80;99.90;;;;;;5021938;28;20245;-55
2021/01/21 07:10:26;;;;;;;0.93;0.80;;;9.90;99.90;;;;;;5015878;28;20192;-48
2021/01/21 07:12:53;;;;;;;0.97;0.70;;;9.90;99.90;;;;;;5023521;28;20181;-52
2021/01/21 07:15:27;;;;;;;2.63;0.70;;;9.90;99.90;;;;;;5019750;28;20219;-49
2021/01/21 07:17:59;;;;;;;1.90;0.93;;;9.80;99.90;;;;;;5010018;28;20196;-51
2021/01/21 07:20:24;;;;;;;1.60;0.73;;;9.80;99.90;;;;;;5018765;28;20836;-48
2021/01/21 07:22:50;;;;;;;0.73;0.60;;;9.80;99.90;;;;;;5024455;28;20207;-55
2021/01/21 07:25:15;;;;;;;2.73;1.00;;;9.70;99.90;;;;;;5014843;28;20927;-50
2021/01/21 07:27:41;;;;;;;1.60;0.80;;;9.80;99.90;;;;;;5025737;28;20545;-51
2021/01/21 07:30:36;;;;;;;1.63;1.03;;;9.80;99.90;;;;;;5016887;28;20315;-45
2021/01/21 07:33:21;;;;;;;3.00;0.80;;;9.80;99.90;;;;;;5003811;28;20687;-52
2021/01/21 07:35:47;;;;;;;2.10;0.87;;;9.90;99.90;;;;;;5022690;28;20181;-55
2021/01/21 07:38:42;;;;;;;0.63;0.60;;;10.00;99.90;;;;;;5022135;28;20781;-46
2021/01/21 07:41:07;;;;;;;1.77;0.80;;;10.00;99.90;;;;;;5011536;28;20172;-46
2021/01/21 07:43:58;;;;;;;2.10;0.93;;;10.00;99.90;;;;;;5025121;28;20196;-47
2021/01/21 07:46:27;;;;;;;2.37;1.40;;;10.00;99.90;;;;;;5014701;28;20712;-48
2021/01/21 07:49:24;;;;;;;2.87;1.50;;;10.10;99.90;;;;;;5004738;28;20200;-51
2021/01/21 07:52:04;;;;;;;3.70;1.30;;;10.10;99.90;;;;;;5013540;28;20184;-53
2021/01/21 07:54:42;;;;;;;0.93;0.80;;;10.20;99.90;;;;;;5017558;28;20236;-50
2021/01/21 07:57:08;;;;;;;1.87;1.40;;;10.20;99.90;;;;;;5015978;28;20195;-51
2021/01/21 07:59:57;;;;;;;0.87;0.50;;;10.40;99.90;;;;;;5025341;28;20188;-50
2021/01/21 08:02:22;;;;;;;0.63;0.40;;;10.40;99.90;;;;;;5022405;28;20212;-50
2021/01/21 08:05:00;;;;;;;0.30;0.30;;;9.80;99.90;;;;;;5010451;28;20296;-53
2021/01/21 08:07:52;;;;;;;3.70;1.60;;;9.10;99.90;;;;;;5024519;28;20219;-47
2021/01/21 08:10:21;;;;;;;2.10;0.67;;;8.70;99.90;;;;;;5011554;28;20199;-49
2021/01/21 08:13:07;;;;;;;3.87;1.67;;;8.50;99.90;;;;;;5015106;28;20271;-53
2021/01/21 08:15:34;;;;;;;1.90;0.87;;;8.40;99.90;;;;;;5017859;28;20744;-47
2021/01/21 08:18:00;;;;;;;1.93;0.80;;;8.30;99.90;;;;;;5013864;28;20222;-51
2021/01/21 08:20:30;;;;;;;2.97;1.40;;;8.20;99.90;;;;;;5010148;28;20271;-49
2021/01/21 08:23:05;;;;;;;1.00;0.63;;;8.20;99.90;;;;;;5010498;28;20294;-52
2021/01/21 08:25:32;;;;;;;5.30;1.30;;;8.20;99.90;;;;;;5012708;28;20654;-46
2021/01/21 08:27:58;;;;;;;1.63;0.97;;;8.20;99.90;;;;;;5009024;28;20203;-49
2021/01/21 08:30:25;;;;;;;1.70;0.70;;;8.10;99.90;;;;;;5018359;28;20547;-51
2021/01/21 08:33:11;;;;;;;1.97;0.90;;;8.10;99.90;;;;;;5014103;28;20704;-50
2021/01/21 08:35:44;;;;;;;4.33;0.80;;;8.10;99.90;;;;;;4996663;28;20208;-46
2021/01/21 08:38:13;;;;;;;2.70;1.70;;;8.00;99.90;;;;;;5021593;28;20180;-51
2021/01/21 08:40:39;;;;;;;1.97;0.77;;;8.00;99.90;;;;;;5015835;28;20199;-53
2021/01/21 08:43:06;;;;;;;1.47;0.60;;;8.00;99.90;;;;;;5018921;28;20242;-49
2021/01/21 08:45:32;;;;;;;5.07;1.30;;;7.90;99.90;;;;;;5020172;28;20210;-49
2021/01/21 08:47:58;;;;;;;5.00;1.70;;;7.80;99.90;;;;;;5019702;28;20676;-48
2021/01/21 08:50:33;;;;;;;5.17;1.77;;;7.80;99.90;;;;;;5008057;28;20188;-54
2021/01/21 08:53:10;;;;;;;5.20;1.90;;;7.80;99.90;;;;;;5014233;28;20275;-47
2021/01/21 08:55:46;;;;;;;3.73;1.27;;;7.70;99.90;;;;;;5013686;28;20480;-50
2021/01/21 08:58:14;;;;;;;1.53;0.80;;;7.70;99.90;;;;;;5014108;28;20199;-50
2021/01/21 09:01:12;;;;;;;1.40;0.30;;;7.70;99.90;;;;;;5020007;28;20182;-48
2021/01/21 09:03:53;;;;;;;1.73;0.30;;;7.60;99.90;;;;;;5010735;28;20236;-48
2021/01/21 09:06:22;;;;;;;2.87;0.40;;;7.60;99.90;;;;;;5009978;28;20294;-54
2021/01/21 09:08:58;;;;;;;2.10;0.57;;;7.60;99.90;;;;;;5020878;28;20270;-50
2021/01/21 09:11:37;;;;;;;4.23;0.60;;;7.60;99.90;;;;;;5019144;28;20219;-55
2021/01/21 09:14:04;;;;;;;2.53;1.00;;;7.60;99.90;;;;;;5018484;28;20253;-48
2021/01/21 09:16:50;;;;;;;4.77;1.37;;;7.60;99.90;;;;;;5019944;28;20267;-53
2021/01/21 09:19:36;;;;;;;1.27;0.77;;;7.70;99.90;;;;;;5017864;28;20210;-52
2021/01/21 09:22:07;;;;;;;8.80;2.87;;;7.70;99.90;;;;;;5009977;28;20219;-47
2021/01/21 09:24:33;;;;;;;5.23;1.10;;;7.70;99.90;;;;;;5018944;28;20196;-46
2021/01/21 09:27:16;;;;;;;5.10;1.87;;;7.70;99.90;;;;;;5023659;28;20214;-46
2021/01/21 09:30:06;;;;;;;3.10;1.63;;;7.70;99.90;;;;;;5011165;28;20195;-46
2021/01/21 09:32:33;;;;;;;3.93;0.90;;;7.70;99.90;;;;;;5018306;28;20210;-55
2021/01/21 09:35:01;;;;;;;1.83;0.83;;;7.80;99.90;;;;;;5017550;28;20286;-55
2021/01/21 09:37:37;;;;;;;5.57;1.50;;;7.80;99.90;;;;;;5006839;28;20271;-49
2021/01/21 09:40:05;;;;;;;4.17;1.27;;;7.80;99.90;;;;;;5020332;28;20204;-51
2021/01/21 09:42:31;;;;;;;5.60;1.47;;;7.80;99.90;;;;;;5019461;28;20184;-51
2021/01/21 09:44:56;;;;;;;4.10;1.40;;;7.80;99.90;;;;;;5018089;28;20215;-53
2021/01/21 09:47:22;;;;;;;3.93;1.20;;;7.80;99.90;;;;;;5021041;28;20726;-48
2021/01/21 09:49:47;;;;;;;2.40;0.70;;;7.80;99.90;;;;;;5016856;28;20262;-50
2021/01/21 09:52:13;;;;;;;2.07;0.93;;;7.80;99.90;;;;;;5021327;28;20271;-52
2021/01/21 09:54:39;;;;;;;2.43;1.37;;;7.80;99.90;;;;;;5008739;28;20249;-52
2021/01/21 09:57:06;;;;;;;2.30;1.00;;;7.90;99.90;;;;;;5029436;28;20187;-48
2021/01/21 09:59:31;;;;;;;4.73;1.97;;;7.90;99.90;;;;;;5010152;28;20195;-49
2021/01/21 10:01:57;;;;;;;4.13;1.60;;;7.90;99.90;;;;;;5027541;28;20192;-46
2021/01/21 10:04:23;;;;;;;6.03;1.23;;;8.00;99.90;;;;;;5022425;28;20215;-58
2021/01/21 10:06:48;;;;;;;2.83;1.03;;;8.00;99.90;;;;;;5019410;28;20976;-55
2021/01/21 10:09:14;;;;;;;3.20;1.20;;;8.00;99.90;;;;;;5008252;28;20184;-56
2021/01/21 10:11:40;;;;;;;4.93;1.43;;;8.10;99.90;;;;;;5027985;28;20172;-54
2021/01/21 10:14:06;;;;;;;4.77;1.47;;;8.10;99.90;;;;;;5026268;28;20291;-52
2021/01/21 10:16:32;;;;;;;1.90;0.90;;;8.10;99.90;;;;;;5019795;28;20179;-50
2021/01/21 10:18:57;;;;;;;4.47;2.70;;;8.10;99.90;;;;;;5025263;28;20188;-49
2021/01/21 10:21:27;;;;;;;1.70;0.97;;;8.10;99.90;;;;;;5012202;28;20243;-58
2021/01/21 10:23:53;;;;;;;3.73;0.97;;;8.10;99.90;;;;;;5012966;28;20199;-53
2021/01/21 10:26:20;;;;;;;5.20;1.40;;;8.10;99.90;;;;;;5022194;28;20211;-60
2021/01/21 10:28:46;;;;;;;5.13;1.10;;;8.10;99.90;;;;;;5022742;28;20345;-54
2021/01/21 10:31:11;;;;;;;2.93;1.30;;;8.10;99.90;;;;;;5017133;28;20189;-59
2021/01/21 10:33:37;;;;;;;6.07;1.70;;;8.10;99.90;;;;;;5022139;28;20222;-52
2021/01/21 10:36:06;;;;;;;5.03;2.30;;;8.20;99.90;;;;;;5020837;28;20238;-54
2021/01/21 10:38:32;;;;;;;4.53;1.07;;;8.20;99.90;;;;;;5017519;28;21146;-51
2021/01/21 10:40:58;;;;;;;7.63;1.30;;;8.20;99.90;;;;;;5009430;28;20192;-53
2021/01/21 10:43:24;;;;;;;5.40;2.33;;;8.20;99.90;;;;;;5022337;28;20211;-56
2021/01/21 10:45:50;;;;;;;2.63;1.67;;;8.20;99.90;;;;;;5019131;28;20536;-51
2021/01/21 10:48:15;;;;;;;6.60;2.17;;;8.30;99.90;;;;;;5024243;28;20224;-56
2021/01/21 10:50:42;;;;;;;6.53;2.40;;;8.30;99.90;;;;;;5015568;28;20196;-53
2021/01/21 10:53:08;;;;;;;4.43;1.30;;;8.30;99.90;;;;;;5019008;28;20192;-55
2021/01/21 10:55:34;;;;;;;3.53;1.70;;;8.30;99.90;;;;;;5008262;28;20180;-55
2021/01/21 10:57:59;;;;;;;3.97;1.70;;;8.30;99.90;;;;;;5028945;28;20191;-55
2021/01/21 11:00:25;;;;;;;3.20;1.50;;;8.40;99.90;;;;;;5018529;28;20184;-57
2021/01/21 11:02:51;;;;;;;1.30;0.37;;;8.40;99.90;;;;;;5025561;28;20192;-50
2021/01/21 11:05:17;;;;;;;5.37;1.47;;;8.50;99.90;;;;;;5023653;28;20214;-57
2021/01/21 11:07:43;;;;;;;3.30;0.90;;;8.50;99.90;;;;;;5013347;28;20212;-55
2021/01/21 11:10:09;;;;;;;4.20;1.13;;;8.50;99.90;;;;;;5010443;28;20604;-56
2021/01/21 11:12:35;;;;;;;2.50;1.30;;;8.50;99.90;;;;;;5021372;28;20177;-56
2021/01/21 11:15:04;;;;;;;3.57;1.10;;;8.60;99.90;;;;;;5024316;28;20237;-53
2021/01/21 11:17:29;;;;;;;3.70;1.63;;;8.60;99.90;;;;;;5015037;28;20196;-56
2021/01/21 11:19:58;;;;;;;3.77;1.30;;;8.60;99.90;;;;;;5018415;28;20187;-59
2021/01/21 11:22:26;;;;;;;4.50;1.27;;;8.60;99.90;;;;;;5015304;28;20916;-54
2021/01/21 11:24:51;;;;;;;4.50;1.43;;;8.60;99.90;;;;;;5004526;28;20215;-56
2021/01/21 11:27:17;;;;;;;6.30;1.83;;;8.60;99.90;;;;;;5020324;28;20566;-55
2021/01/21 11:29:43;;;;;;;1.40;0.50;;;8.70;99.90;;;;;;5020912;28;20259;-58
2021/01/21 11:32:09;;;;;;;3.53;1.20;;;8.70;99.90;;;;;;5018922;28;20275;-55
2021/01/21 11:34:34;;;;;;;3.77;1.53;;;8.70;99.90;;;;;;5020572;28;20200;-53
2021/01/21 11:37:00;;;;;;;3.50;1.10;;;8.70;99.90;;;;;;5024424;28;20649;-53
2021/01/21 11:39:25;;;;;;;2.23;0.97;;;8.70;99.90;;;;;;5012211;28;20223;-54
2021/01/21 11:41:51;;;;;;;6.23;0.97;;;8.80;99.90;;;;;;5009412;28;20242;-54
2021/01/21 11:44:17;;;;;;;4.53;1.40;;;8.80;99.90;;;;;;5023068;28;20269;-55
2021/01/21 11:46:42;;;;;;;1.80;1.00;;;8.70;99.90;;;;;;5017328;28;20222;-57
2021/01/21 11:49:08;;;;;;;4.87;1.10;;;8.60;99.90;;;;;;5023171;28;20210;-57
2021/01/21 11:51:34;;;;;;;1.67;1.10;;;8.60;99.90;;;;;;5019193;28;20890;-55
2021/01/21 11:53:59;;;;;;;5.97;1.27;;;8.60;99.90;;;;;;5015829;28;20747;-51
2021/01/21 11:56:24;;;;;;;3.80;1.40;;;8.60;99.90;;;;;;5010931;28;20772;-53
2021/01/21 11:58:50;;;;;;;1.77;0.97;;;8.60;99.90;;;;;;5020820;28;20267;-54
2021/01/21 12:01:15;;;;;;;1.67;0.90;;;8.70;99.90;;;;;;5022888;28;20715;-46
2021/01/21 12:03:41;;;;;;;1.93;0.90;;;8.60;99.90;;;;;;5017883;28;20295;-52
2021/01/21 12:06:07;;;;;;;2.07;0.80;;;8.50;99.90;;;;;;5025260;28;20192;-51
2021/01/21 12:08:32;;;;;;;5.03;1.13;;;8.40;99.90;;;;;;5016690;28;20285;-50
2021/01/21 12:10:58;;;;;;;3.17;1.60;;;8.40;99.90;;;;;;5020744;28;20219;-49
2021/01/21 12:13:23;;;;;;;3.50;2.10;;;8.50;99.90;;;;;;5008281;28;20204;-49
2021/01/21 12:15:48;;;;;;;4.97;1.67;;;8.50;99.90;;;;;;5023520;28;20199;-50
2021/01/21 12:18:15;;;;;;;6.60;1.00;;;8.50;99.90;;;;;;5018767;28;20193;-53
2021/01/21 12:20:41;;;;;;;2.20;0.83;;;8.60;99.90;;;;;;5021598;28;20168;-50
2021/01/21 12:23:06;;;;;;;3.43;1.20;;;8.70;99.90;;;;;;5024094;28;20275;-48
2021/01/21 12:25:31;;;;;;;4.03;0.80;;;8.70;99.90;;;;;;5012142;28;20204;-49
2021/01/21 12:27:57;;;;;;;2.77;0.80;;;8.80;99.90;;;;;;5011685;28;20250;-47
2021/01/21 12:30:23;;;;;;;3.97;1.20;;;8.80;99.90;;;;;;5021136;28;20168;-52
2021/01/21 12:32:48;;;;;;;5.27;2.40;;;8.80;99.90;;;;;;5029390;28;20171;-48
2021/01/21 12:35:15;;;;;;;4.73;1.23;;;8.80;99.90;;;;;;5016843;28;20208;-54
2021/01/21 12:37:41;;;;;;;2.07;0.70;;;8.70;99.90;;;;;;5021869;28;20180;-53
2021/01/21 12:40:07;;;;;;;5.33;1.30;;;8.70;99.90;;;;;;5012623;28;20203;-52
2021/01/21 12:42:32;;;;;;;5.53;2.20;;;8.70;99.90;;;;;;5002879;28;20220;-47
2021/01/21 12:44:58;;;;;;;1.73;0.80;;;8.70;99.90;;;;;;5023825;28;20243;-50
2021/01/21 12:47:23;;;;;;;3.43;1.33;;;8.80;99.90;;;;;;5020875;28;20339;-54
2021/01/21 12:49:49;;;;;;;2.83;0.90;;;8.80;99.90;;;;;;5017212;28;20196;-47
2021/01/21 12:52:15;;;;;;;2.73;1.67;;;8.70;99.90;;;;;;5022986;28;20184;-53
2021/01/21 12:54:47;;;;;;;4.80;1.93;;;8.60;99.90;;;;;;5016356;28;20204;-52
2021/01/21 12:57:13;;;;;;;2.43;1.13;;;8.60;99.90;;;;;;5019351;28;20180;-54
2021/01/21 12:59:39;;;;;;;1.70;0.80;;;8.60;99.90;;;;;;5005427;28;20977;-57
2021/01/21 13:02:04;;;;;;;4.07;0.73;;;8.60;99.90;;;;;;5023494;28;20180;-55
2021/01/21 13:04:30;;;;;;;2.63;1.30;;;8.60;99.90;;;;;;5012259;28;20195;-54